Terminal Aerodrome Forecast
Issued by NWS Grand Rapids, MI

Home | Current Version | Previous Version | Text Only | Print | Product List | Glossary On
Versions: 1 2 3 4 5 6 7 8 9 10 11 12 13 14 15 16 17 18 19
000
FTUS43 KGRR 030540
TAFGRR
TAF
KGRR 030540Z 0306/0406 25015G30KT 2SM TSRA BKN050CB
     FM030700 22005KT 6SM HZ VCTS BKN080CB
     FM030900 21005KT 5SM SHRA BR VCTS OVC040CB
     FM031500 24007KT P6SM VCTS BKN050CB=

USA.gov is the U.S. government's official web portal to all federal, state and local government web resources and services.